Terminal Aerodrome Forecast
Issued by NWS

Home | Current Version | Previous Version | Graphics & Text | Print | Product List | Glossary On
Versions: 1 2 3 4 5 6 7 8 9 10 11 12 13 14 15 16 17 18 19 20
506
FTUS43 KMPX 170531
TAFRNH
TAF
KRNH 170531Z 1706/1806 11008KT P6SM VCSH SCT015 BKN030
     FM170800 16008KT P6SM VCSH SCT005 BKN015
     FM171200 21008KT 5SM -SHRA BR OVC005
     FM171600 28007KT 4SM -RA BR OVC007
     FM172200 31014G21KT P6SM OVC012
     FM180200 32010KT P6SM BKN020
     FM180400 31008KT P6SM SCT025 SCT250=

USA.gov is the U.S. government's official web portal to all federal, state and local government web resources and services.